Time;durP1;ratioP1;P1;durP2;ratioP2;P2;SDS_P1;SDS_P2;PMS_P1;PMS_P2;Temp;Humidity;BMP_temperature;BMP_pressure;BME280_temperature;BME280_humidity;BME280_pressure;Samples;Min_cycle;Max_cycle;Signal;HPM_P1;HPM_P2
2021/07/02 00:00:23;;;;;;;16.07;5.87;;;16.20;94.10;;;;;;5116041;28;20462;-83
2021/07/02 00:02:48;;;;;;;9.97;5.10;;;16.10;94.30;;;;;;5115399;28;20667;-83
2021/07/02 00:05:15;;;;;;;14.33;6.10;;;16.10;94.40;;;;;;5115938;28;20414;-83
2021/07/02 00:07:41;;;;;;;14.38;6.15;;;16.10;94.30;;;;;;5116058;28;20523;-84
2021/07/02 00:10:08;;;;;;;12.05;5.88;;;16.10;94.80;;;;;;5115976;28;20221;-82
2021/07/02 00:12:34;;;;;;;8.50;4.43;;;16.10;94.90;;;;;;5116284;28;20172;-83
2021/07/02 00:15:00;;;;;;;8.82;5.53;;;16.10;94.80;;;;;;5115850;28;20229;-83
2021/07/02 00:17:26;;;;;;;12.83;5.90;;;16.10;94.80;;;;;;5115849;28;20176;-83
2021/07/02 00:19:51;;;;;;;12.00;4.93;;;16.10;94.90;;;;;;5116046;28;20424;-82
2021/07/02 00:22:17;;;;;;;11.67;4.30;;;16.10;94.70;;;;;;5115769;28;20229;-83
2021/07/02 00:24:43;;;;;;;11.70;5.20;;;16.10;94.70;;;;;;5114734;28;20195;-84
2021/07/02 00:27:09;;;;;;;9.30;5.60;;;16.10;95.00;;;;;;5113878;28;20463;-83
2021/07/02 00:29:34;;;;;;;11.53;5.40;;;16.10;94.90;;;;;;5113927;28;20592;-83
2021/07/02 00:32:00;;;;;;;14.10;5.47;;;16.10;94.80;;;;;;5097701;28;20566;-83
2021/07/02 00:34:26;;;;;;;11.03;4.77;;;16.00;95.00;;;;;;5114218;28;20214;-84
2021/07/02 00:36:52;;;;;;;9.50;4.20;;;16.00;94.70;;;;;;5114567;28;20401;-83
2021/07/02 00:39:18;;;;;;;14.63;5.03;;;16.00;94.70;;;;;;5115041;28;20441;-83
2021/07/02 00:41:43;;;;;;;10.20;5.70;;;16.00;94.80;;;;;;5114262;28;20225;-83
2021/07/02 00:44:09;;;;;;;13.37;5.23;;;16.00;95.30;;;;;;5114374;28;20434;-83
2021/07/02 00:46:35;;;;;;;10.37;4.87;;;15.90;95.20;;;;;;5114308;28;20187;-84
2021/07/02 00:49:01;;;;;;;10.33;5.17;;;15.90;95.00;;;;;;5114318;28;20935;-83
2021/07/02 00:51:32;;;;;;;17.00;5.90;;;15.90;95.10;;;;;;5114306;28;20508;-83
2021/07/02 00:53:59;;;;;;;12.23;5.18;;;15.90;95.10;;;;;;5114107;28;20748;-83
2021/07/02 00:56:25;;;;;;;10.65;5.13;;;15.90;95.40;;;;;;5112653;28;20266;-83
2021/07/02 00:58:51;;;;;;;10.57;4.90;;;15.80;95.70;;;;;;5112175;28;20168;-83
2021/07/02 01:01:17;;;;;;;11.83;5.50;;;15.80;95.50;;;;;;5113050;28;20168;-83
2021/07/02 01:03:45;;;;;;;14.30;6.22;;;15.70;95.70;;;;;;5112404;28;20434;-83
2021/07/02 01:06:12;;;;;;;10.65;5.20;;;15.70;95.80;;;;;;5112607;28;20187;-83
2021/07/02 01:08:40;;;;;;;11.52;6.15;;;15.70;95.70;;;;;;5095663;28;20168;-83
2021/07/02 01:11:06;;;;;;;10.25;4.97;;;15.70;95.70;;;;;;5111829;28;20270;-84
2021/07/02 01:13:32;;;;;;;10.70;4.65;;;15.80;95.70;;;;;;5111926;28;20273;-84
2021/07/02 01:15:58;;;;;;;10.57;5.23;;;15.80;95.60;;;;;;5111711;28;20183;-83
2021/07/02 01:18:24;;;;;;;12.00;5.63;;;15.80;95.60;;;;;;5111779;28;20509;-83
2021/07/02 01:20:52;;;;;;;19.70;6.23;;;15.80;95.60;;;;;;5112481;28;20164;-83
2021/07/02 01:23:18;;;;;;;8.90;5.20;;;15.90;95.50;;;;;;5112934;28;20440;-83
2021/07/02 01:25:45;;;;;;;9.30;4.93;;;15.80;95.80;;;;;;5112346;28;20221;-83
2021/07/02 01:28:12;;;;;;;8.63;4.72;;;15.80;96.00;;;;;;5111713;28;20199;-84
2021/07/02 01:30:39;;;;;;;8.15;4.22;;;15.80;96.00;;;;;;5112518;28;20172;-84
2021/07/02 01:33:04;;;;;;;11.30;5.88;;;15.80;95.90;;;;;;5112027;28;20223;-83
2021/07/02 01:35:30;;;;;;;11.10;5.03;;;15.80;96.00;;;;;;5113570;28;20176;-83
2021/07/02 01:37:56;;;;;;;13.10;5.93;;;15.80;96.10;;;;;;5113471;28;20172;-84
2021/07/02 01:40:22;;;;;;;9.70;5.50;;;15.70;96.20;;;;;;5111666;28;20175;-84
2021/07/02 01:42:48;;;;;;;9.23;5.73;;;15.70;96.30;;;;;;5113281;28;20188;-84
2021/07/02 01:45:13;;;;;;;16.27;5.88;;;15.70;96.30;;;;;;5116317;28;20197;-83
2021/07/02 01:47:40;;;;;;;11.23;5.37;;;15.60;96.30;;;;;;5116450;28;20183;-83
2021/07/02 01:50:06;;;;;;;12.73;5.25;;;15.70;96.20;;;;;;5116493;28;20414;-84
2021/07/02 01:52:32;;;;;;;13.25;6.40;;;15.70;96.20;;;;;;5116533;28;20220;-84
2021/07/02 01:54:58;;;;;;;10.50;4.82;;;15.60;96.20;;;;;;5116795;28;20203;-83
2021/07/02 01:57:26;;;;;;;9.40;5.63;;;15.50;96.70;;;;;;5117999;28;20183;-83
2021/07/02 01:59:53;;;;;;;10.52;4.13;;;15.50;96.90;;;;;;5118191;28;20209;-83
2021/07/02 02:02:19;;;;;;;11.75;5.85;;;15.60;97.00;;;;;;5117582;28;20168;-84
2021/07/02 02:04:45;;;;;;;11.00;5.28;;;15.60;96.80;;;;;;5117387;28;20263;-84
2021/07/02 02:07:11;;;;;;;9.98;5.05;;;15.50;96.80;;;;;;5115906;28;20663;-83
2021/07/02 02:09:37;;;;;;;9.23;4.78;;;15.50;97.00;;;;;;5117610;28;20176;-83
2021/07/02 02:12:04;;;;;;;10.63;5.40;;;15.60;97.10;;;;;;5117757;28;20554;-84
2021/07/02 02:14:29;;;;;;;11.23;5.13;;;15.60;95.90;;;;;;5116196;28;20462;-83
2021/07/02 02:16:56;;;;;;;12.53;5.40;;;15.50;93.60;;;;;;5116806;28;20530;-84
2021/07/02 02:19:22;;;;;;;10.35;5.32;;;15.60;93.40;;;;;;5117445;28;20168;-83
2021/07/02 02:21:48;;;;;;;9.20;5.15;;;15.60;93.20;;;;;;5115682;28;20210;-83
2021/07/02 02:24:14;;;;;;;11.55;4.90;;;15.60;93.10;;;;;;5115783;28;20187;-83
2021/07/02 02:26:40;;;;;;;11.43;6.40;;;15.60;93.10;;;;;;5117064;28;20183;-83
2021/07/02 02:29:07;;;;;;;10.33;5.00;;;15.60;93.00;;;;;;5118722;28;20486;-84
2021/07/02 02:31:33;;;;;;;7.85;4.63;;;15.60;93.30;;;;;;5116053;28;20771;-83
2021/07/02 02:34:00;;;;;;;8.40;5.05;;;15.60;93.50;;;;;;5114831;28;20574;-84
2021/07/02 02:36:27;;;;;;;10.02;4.60;;;15.60;93.60;;;;;;5115324;28;20171;-84
2021/07/02 02:38:53;;;;;;;9.40;5.50;;;15.60;93.70;;;;;;5114733;28;20172;-83
2021/07/02 02:41:19;;;;;;;9.98;4.85;;;15.60;93.90;;;;;;5114535;28;20255;-83
2021/07/02 02:43:45;;;;;;;10.60;5.50;;;15.70;93.90;;;;;;5115699;28;20282;-83
2021/07/02 02:46:11;;;;;;;11.27;5.70;;;15.70;94.00;;;;;;5115349;28;20613;-83
2021/07/02 02:48:37;;;;;;;9.90;5.30;;;15.60;94.50;;;;;;5115560;28;20964;-83
2021/07/02 02:51:03;;;;;;;9.13;4.73;;;15.60;94.70;;;;;;5114405;28;20176;-84
2021/07/02 02:53:29;;;;;;;14.52;5.38;;;15.50;95.00;;;;;;5113652;28;20206;-84
2021/07/02 02:55:55;;;;;;;10.83;5.10;;;15.40;95.10;;;;;;5112847;28;20175;-84
2021/07/02 02:58:20;;;;;;;9.07;4.63;;;15.40;95.20;;;;;;5114906;28;20996;-84
2021/07/02 03:00:46;;;;;;;9.30;4.90;;;15.40;95.40;;;;;;5113984;28;20234;-84
2021/07/02 03:03:12;;;;;;;8.07;5.10;;;15.30;95.70;;;;;;5113347;28;20188;-84
2021/07/02 03:05:38;;;;;;;11.33;5.10;;;15.20;96.00;;;;;;5113040;28;20179;-84
2021/07/02 03:08:04;;;;;;;22.37;7.73;;;15.20;96.00;;;;;;5113542;28;20172;-83
2021/07/02 03:10:30;;;;;;;16.00;6.25;;;15.20;95.80;;;;;;5113636;28;20496;-84
2021/07/02 03:12:57;;;;;;;10.60;5.75;;;15.10;96.10;;;;;;5113584;28;20198;-84
2021/07/02 03:15:22;;;;;;;16.73;5.53;;;15.00;96.30;;;;;;5112558;28;20199;-84
2021/07/02 03:17:48;;;;;;;11.30;5.30;;;15.00;96.60;;;;;;5113581;28;20218;-84
2021/07/02 03:20:14;;;;;;;14.50;5.63;;;14.90;96.80;;;;;;5113238;28;20413;-84
2021/07/02 03:22:43;;;;;;;12.13;5.77;;;14.80;97.10;;;;;;5113281;28;20432;-84
2021/07/02 03:25:10;;;;;;;12.40;5.78;;;14.80;97.00;;;;;;5112870;28;20508;-84
2021/07/02 03:27:36;;;;;;;11.25;5.82;;;14.80;97.10;;;;;;5112487;28;20168;-84
2021/07/02 03:30:04;;;;;;;16.05;7.05;;;14.80;97.00;;;;;;5113293;28;20210;-84
2021/07/02 03:32:30;;;;;;;13.70;5.95;;;14.80;97.20;;;;;;5113626;28;20182;-83
2021/07/02 03:34:56;;;;;;;12.90;6.37;;;14.70;97.30;;;;;;5113214;28;20571;-83
2021/07/02 03:37:22;;;;;;;13.20;6.70;;;14.70;97.40;;;;;;5113654;28;20174;-84
2021/07/02 03:39:47;;;;;;;16.20;6.67;;;14.70;97.50;;;;;;5114024;28;20491;-83
2021/07/02 03:42:13;;;;;;;12.27;5.77;;;14.70;97.60;;;;;;5114378;28;20249;-83
2021/07/02 03:44:39;;;;;;;12.93;6.25;;;14.50;98.00;;;;;;5114308;28;21139;-83
2021/07/02 03:47:06;;;;;;;10.97;6.40;;;14.50;98.50;;;;;;5113494;28;20172;-83
2021/07/02 03:49:31;;;;;;;15.15;6.78;;;14.40;98.90;;;;;;5113364;28;20424;-84
2021/07/02 03:51:57;;;;;;;11.10;5.70;;;14.40;99.10;;;;;;5115273;28;20258;-83
2021/07/02 03:54:23;;;;;;;12.53;5.57;;;14.40;99.10;;;;;;5114124;28;20192;-83
2021/07/02 03:59:33;;;;;;;25.63;6.85;;;14.50;99.00;;;;;;5097883;28;20215;-83
2021/07/02 04:01:59;;;;;;;9.27;5.30;;;14.50;98.90;;;;;;5113752;28;20196;-83
2021/07/02 04:04:25;;;;;;;13.07;5.97;;;14.40;99.00;;;;;;5113413;28;20198;-84
2021/07/02 04:06:50;;;;;;;20.27;6.57;;;14.40;99.10;;;;;;5111206;28;20933;-84
2021/07/02 04:09:16;;;;;;;14.90;5.60;;;14.40;99.10;;;;;;5111740;28;20538;-84
2021/07/02 04:11:42;;;;;;;15.10;7.53;;;14.40;99.10;;;;;;5111957;28;20172;-84
2021/07/02 04:14:08;;;;;;;13.80;7.33;;;14.40;99.10;;;;;;5111769;28;20731;-84
2021/07/02 04:16:34;;;;;;;15.63;7.18;;;14.50;99.10;;;;;;5111868;28;20418;-82
2021/07/02 04:19:00;;;;;;;21.90;6.93;;;14.50;99.10;;;;;;5111915;28;20270;-83
2021/07/02 04:21:26;;;;;;;16.63;7.90;;;14.60;99.10;;;;;;5111480;28;20168;-83
2021/07/02 04:23:52;;;;;;;12.57;6.15;;;14.70;99.10;;;;;;5111066;28;20426;-83
2021/07/02 04:26:18;;;;;;;12.43;6.90;;;14.60;99.10;;;;;;5111299;28;20175;-82
2021/07/02 04:28:44;;;;;;;18.70;6.90;;;14.70;99.10;;;;;;5111142;28;20418;-82
2021/07/02 04:31:10;;;;;;;13.13;6.20;;;14.70;99.10;;;;;;5111181;28;20448;-82
2021/07/02 04:33:35;;;;;;;12.17;6.00;;;14.70;99.10;;;;;;5110521;28;20980;-82
2021/07/02 04:36:02;;;;;;;16.63;6.53;;;14.80;99.10;;;;;;5111048;28;20402;-83
2021/07/02 04:38:28;;;;;;;13.70;7.50;;;14.90;99.10;;;;;;5111195;28;20218;-83
2021/07/02 04:40:53;;;;;;;15.40;6.10;;;14.90;99.10;;;;;;5111110;28;20655;-83
2021/07/02 04:43:19;;;;;;;16.27;6.77;;;14.90;99.10;;;;;;5111884;28;20192;-84
2021/07/02 04:45:45;;;;;;;13.83;6.47;;;14.90;99.10;;;;;;5111851;28;20172;-83
2021/07/02 04:48:10;;;;;;;12.03;6.23;;;15.00;99.10;;;;;;5111923;28;20171;-84
2021/07/02 04:50:36;;;;;;;21.80;6.10;;;14.90;99.10;;;;;;5111920;28;20640;-84
2021/07/02 04:53:02;;;;;;;15.25;6.75;;;15.00;99.10;;;;;;5112857;28;20184;-83
2021/07/02 04:55:28;;;;;;;28.63;7.90;;;15.10;99.10;;;;;;5112044;28;20264;-83
2021/07/02 04:57:54;;;;;;;18.30;7.77;;;15.10;99.10;;;;;;5112215;28;20413;-84
2021/07/02 05:00:20;;;;;;;16.90;7.63;;;15.10;99.10;;;;;;5112389;28;20467;-83
2021/07/02 05:02:45;;;;;;;15.30;7.00;;;15.20;99.10;;;;;;5112052;28;20301;-84
2021/07/02 05:05:11;;;;;;;10.70;6.63;;;15.20;98.60;;;;;;5112042;28;20559;-83
2021/07/02 05:07:39;;;;;;;24.47;7.70;;;15.30;98.50;;;;;;5111845;28;20172;-83
2021/07/02 05:10:05;;;;;;;11.60;6.43;;;15.30;98.60;;;;;;5111818;28;20179;-83
2021/07/02 05:12:31;;;;;;;12.35;6.25;;;15.30;99.00;;;;;;5111633;28;20176;-84
2021/07/02 05:14:58;;;;;;;18.50;6.78;;;15.50;98.60;;;;;;5111108;28;20210;-83
2021/07/02 05:17:24;;;;;;;15.00;6.60;;;15.50;98.20;;;;;;5112056;28;20180;-83
2021/07/02 05:19:50;;;;;;;23.40;6.17;;;15.60;98.50;;;;;;5097028;28;20191;-83
2021/07/02 05:22:22;;;;;;;20.63;7.70;;;15.70;98.00;;;;;;5115479;28;20455;-83
2021/07/02 05:24:49;;;;;;;13.80;7.20;;;15.80;97.70;;;;;;5114787;28;20413;-83
2021/07/02 05:27:15;;;;;;;16.88;7.45;;;15.80;97.60;;;;;;5115963;28;20541;-83
2021/07/02 05:29:42;;;;;;;16.45;7.15;;;15.80;97.30;;;;;;5116575;28;20207;-82
2021/07/02 05:32:08;;;;;;;15.25;7.30;;;15.80;97.10;;;;;;5116932;28;20172;-82
2021/07/02 05:34:34;;;;;;;14.48;6.80;;;15.80;96.80;;;;;;5117246;28;20298;-83
2021/07/02 05:37:01;;;;;;;13.80;6.40;;;15.80;97.10;;;;;;5117257;28;20336;-83
2021/07/02 05:39:26;;;;;;;17.13;7.05;;;15.90;97.00;;;;;;5116688;28;20171;-83
2021/07/02 05:41:52;;;;;;;18.80;7.73;;;16.00;97.00;;;;;;5117508;28;20168;-82
2021/07/02 05:44:18;;;;;;;17.10;6.60;;;16.00;96.90;;;;;;5118321;28;20965;-82
2021/07/02 05:46:44;;;;;;;15.80;7.83;;;16.10;96.70;;;;;;5117168;28;20194;-82
2021/07/02 05:49:10;;;;;;;26.38;7.82;;;16.20;96.70;;;;;;5116848;28;20481;-83
2021/07/02 05:51:36;;;;;;;21.45;8.85;;;16.30;96.40;;;;;;5116523;28;20299;-83
2021/07/02 05:54:03;;;;;;;14.27;6.97;;;16.40;96.50;;;;;;5117045;28;20238;-83
2021/07/02 05:56:29;;;;;;;21.23;8.35;;;16.60;96.20;;;;;;5117375;28;20171;-82
2021/07/02 05:58:59;;;;;;;27.43;8.40;;;16.80;94.70;;;;;;5116776;28;20176;-82
2021/07/02 06:01:25;;;;;;;19.75;8.45;;;16.90;94.10;;;;;;5115913;28;20186;-83
2021/07/02 06:03:54;;;;;;;19.10;8.57;;;17.00;93.60;;;;;;5115370;28;20206;-83
2021/07/02 06:06:20;;;;;;;15.93;8.13;;;17.10;93.20;;;;;;5115574;28;20172;-83
2021/07/02 06:08:47;;;;;;;17.98;7.55;;;17.10;92.70;;;;;;5116122;28;20237;-83
2021/07/02 06:11:13;;;;;;;21.83;7.38;;;17.20;92.30;;;;;;5116276;28;20174;-83
2021/07/02 06:13:38;;;;;;;23.80;7.78;;;17.30;91.60;;;;;;5114139;28;20226;-82
2021/07/02 06:16:05;;;;;;;18.17;7.67;;;17.40;91.90;;;;;;5114290;28;20184;-83
2021/07/02 06:18:31;;;;;;;17.88;7.25;;;17.60;91.40;;;;;;5116193;28;20194;-83
2021/07/02 06:20:57;;;;;;;16.33;7.85;;;17.70;90.10;;;;;;5116705;28;20168;-83
2021/07/02 06:23:24;;;;;;;25.58;8.82;;;17.90;90.30;;;;;;5116395;28;20187;-83
2021/07/02 06:25:50;;;;;;;16.67;7.82;;;18.00;90.60;;;;;;5118354;28;20168;-83
2021/07/02 06:28:17;;;;;;;24.77;7.60;;;18.10;88.00;;;;;;5116145;28;20164;-83
2021/07/02 06:30:43;;;;;;;17.55;8.18;;;18.30;88.30;;;;;;5117817;28;20640;-84
2021/07/02 06:33:10;;;;;;;19.55;8.50;;;18.40;87.10;;;;;;5119801;28;20183;-83
2021/07/02 06:35:37;;;;;;;26.98;9.55;;;18.50;87.00;;;;;;5118847;28;20668;-83
2021/07/02 06:38:03;;;;;;;15.93;7.93;;;18.70;86.30;;;;;;5119361;28;20172;-83
2021/07/02 06:40:29;;;;;;;16.63;7.88;;;18.70;86.40;;;;;;5121273;28;20168;-84
2021/07/02 06:42:55;;;;;;;21.38;7.63;;;18.80;86.00;;;;;;5119878;28;20585;-83
2021/07/02 06:45:21;;;;;;;17.23;7.60;;;18.80;85.90;;;;;;5116907;28;20198;-83
2021/07/02 06:47:59;;;;;;;15.00;7.43;;;18.80;86.00;;;;;;5116417;28;20414;-82
2021/07/02 06:50:36;;;;;;;16.75;7.57;;;18.90;86.40;;;;;;5117498;28;20176;-83
2021/07/02 06:53:04;;;;;;;15.65;7.13;;;19.00;86.70;;;;;;5118090;28;20191;-83
2021/07/02 06:55:32;;;;;;;19.67;8.90;;;19.20;84.20;;;;;;5117060;28;20585;-83
2021/07/02 06:57:58;;;;;;;14.60;6.72;;;19.50;82.40;;;;;;5117300;28;20175;-84
2021/07/02 07:00:25;;;;;;;12.05;5.90;;;19.70;81.00;;;;;;5116689;28;20592;-84
2021/07/02 07:02:51;;;;;;;14.90;6.50;;;19.80;80.10;;;;;;5116725;28;20695;-83
2021/07/02 07:05:18;;;;;;;12.55;6.30;;;20.00;79.40;;;;;;5117524;28;20175;-84
2021/07/02 07:07:44;;;;;;;10.90;5.53;;;20.20;77.10;;;;;;5115832;28;20179;-83
2021/07/02 07:10:11;;;;;;;13.05;6.85;;;20.30;74.90;;;;;;5115867;28;20179;-84
2021/07/02 07:12:36;;;;;;;13.38;6.53;;;20.20;73.10;;;;;;5115715;28;20194;-83
2021/07/02 07:15:04;;;;;;;12.10;5.40;;;20.20;73.80;;;;;;5115085;28;20295;-83
2021/07/02 07:17:30;;;;;;;9.05;5.70;;;20.30;73.00;;;;;;5113777;28;20164;-83
2021/07/02 07:19:56;;;;;;;11.88;5.30;;;20.40;74.40;;;;;;5113415;28;20206;-83
2021/07/02 07:22:22;;;;;;;9.38;5.50;;;20.30;73.70;;;;;;5113023;28;20228;-83
2021/07/02 07:24:48;;;;;;;10.67;5.70;;;20.30;72.80;;;;;;5112620;28;20267;-83
2021/07/02 07:27:14;;;;;;;10.02;5.10;;;20.40;70.60;;;;;;5113491;28;20168;-83
2021/07/02 07:29:39;;;;;;;21.13;7.40;;;20.40;73.50;;;;;;5113803;28;20277;-83
2021/07/02 07:32:05;;;;;;;7.80;5.37;;;20.50;69.90;;;;;;5113153;28;20179;-83
2021/07/02 07:37:07;;;;;;;8.45;4.90;;;20.30;70.50;;;;;;5098280;28;20148;-83
2021/07/02 07:39:33;;;;;;;11.75;5.38;;;20.20;71.40;;;;;;5113781;28;20218;-83
2021/07/02 07:41:59;;;;;;;8.93;5.07;;;20.10;70.50;;;;;;5112907;28;20640;-83
2021/07/02 07:44:24;;;;;;;8.10;4.33;;;20.20;70.80;;;;;;5114086;28;20188;-83
2021/07/02 07:46:51;;;;;;;10.53;5.60;;;20.50;71.70;;;;;;5113658;28;20418;-83
2021/07/02 07:49:16;;;;;;;10.23;5.10;;;21.00;69.60;;;;;;5112941;28;20220;-83
2021/07/02 07:54:20;;;;;;;13.35;5.18;;;21.40;67.40;;;;;;5097086;28;20211;-83
2021/07/02 07:56:51;;;;;;;17.70;5.13;;;21.40;67.30;;;;;;5112575;28;20164;-83
2021/07/02 07:59:27;;;;;;;11.25;5.95;;;21.20;65.30;;;;;;5111816;28;20164;-83
2021/07/02 08:01:53;;;;;;;11.50;4.80;;;21.00;68.70;;;;;;5112864;28;20155;-83
2021/07/02 08:04:19;;;;;;;9.20;5.13;;;20.80;66.20;;;;;;5112401;28;20199;-83
2021/07/02 08:06:45;;;;;;;9.97;5.43;;;20.60;67.10;;;;;;5112566;28;20414;-83
2021/07/02 08:09:12;;;;;;;8.82;4.90;;;20.50;68.10;;;;;;5111805;28;20410;-83
2021/07/02 08:11:42;;;;;;;9.65;5.13;;;20.40;68.80;;;;;;5112126;28;20203;-83
2021/07/02 08:14:09;;;;;;;18.95;5.97;;;20.40;68.40;;;;;;5111864;28;20201;-83
2021/07/02 08:16:37;;;;;;;17.17;4.70;;;20.50;68.40;;;;;;5112050;28;20180;-84
2021/07/02 08:19:04;;;;;;;8.02;4.20;;;20.80;67.80;;;;;;5112141;28;20168;-83
2021/07/02 08:21:30;;;;;;;7.93;4.35;;;21.10;67.70;;;;;;5111484;28;20212;-84
2021/07/02 08:23:56;;;;;;;10.13;5.30;;;21.40;64.50;;;;;;5111700;28;20199;-84
2021/07/02 08:26:22;;;;;;;16.73;4.70;;;;;;;;;;5112149;28;20171;-84
2021/07/02 08:31:33;;;;;;;7.50;4.78;;;21.60;61.00;;;;;;5096464;28;20166;-84
2021/07/02 08:33:59;;;;;;;8.18;4.18;;;21.30;61.90;;;;;;5111883;28;20286;-84
2021/07/02 08:36:25;;;;;;;11.55;5.90;;;21.30;63.80;;;;;;5111671;28;20644;-84
2021/07/02 08:38:51;;;;;;;7.00;4.20;;;21.50;62.60;;;;;;5111450;28;20179;-83
2021/07/02 08:41:16;;;;;;;8.03;4.07;;;21.60;60.90;;;;;;5112955;28;20437;-83
2021/07/02 08:43:45;;;;;;;10.13;5.17;;;21.70;60.00;;;;;;5112944;28;20441;-84
2021/07/02 08:46:16;;;;;;;11.10;4.65;;;21.80;61.30;;;;;;5112108;28;20466;-83
2021/07/02 08:48:46;;;;;;;7.22;4.38;;;22.10;61.90;;;;;;5113197;28;20172;-84
2021/07/02 08:51:12;;;;;;;9.43;4.85;;;22.40;59.20;;;;;;5111936;28;20546;-83
2021/07/02 08:53:38;;;;;;;8.57;4.63;;;22.70;60.30;;;;;;5113328;28;20294;-84
2021/07/02 08:56:04;;;;;;;8.20;5.10;;;22.80;57.60;;;;;;5116651;28;20167;-84
2021/07/02 08:58:35;;;;;;;10.35;4.70;;;22.70;57.00;;;;;;5116070;28;20613;-84
2021/07/02 09:01:07;;;;;;;14.95;5.43;;;22.70;58.40;;;;;;5115713;28;20180;-83
2021/07/02 09:03:36;;;;;;;10.27;5.07;;;22.30;60.00;;;;;;5116098;28;20755;-83
2021/07/02 09:06:12;;;;;;;9.43;4.50;;;22.10;61.30;;;;;;5115267;28;20168;-83
2021/07/02 09:08:39;;;;;;;8.32;5.15;;;22.10;61.60;;;;;;5115300;28;20628;-84
2021/07/02 09:11:25;;;;;;;6.90;4.80;;;22.30;62.00;;;;;;5115335;28;20178;-83
2021/07/02 09:13:51;;;;;;;9.98;4.97;;;22.80;57.50;;;;;;5115145;28;20203;-83
2021/07/02 09:16:37;;;;;;;10.50;5.20;;;22.80;55.10;;;;;;5115214;28;20198;-84
2021/07/02 09:19:27;;;;;;;12.35;5.05;;;22.60;56.40;;;;;;5115533;28;20766;-84
2021/07/02 09:22:21;;;;;;;9.25;5.03;;;22.60;58.10;;;;;;5116095;28;20168;-84
2021/07/02 09:24:48;;;;;;;8.35;5.18;;;22.40;59.10;;;;;;5116573;28;20172;-84
2021/07/02 09:27:30;;;;;;;10.95;5.28;;;22.30;60.10;;;;;;5116716;28;20172;-83
2021/07/02 09:30:18;;;;;;;8.85;5.28;;;22.20;61.20;;;;;;5116916;28;20167;-84
2021/07/02 09:32:46;;;;;;;9.00;4.93;;;22.10;62.10;;;;;;5116305;28;20259;-83
2021/07/02 09:35:14;;;;;;;12.63;5.05;;;21.90;61.70;;;;;;5116713;28;20675;-84
2021/07/02 09:37:42;;;;;;;17.42;5.68;;;22.00;62.40;;;;;;5116617;28;20174;-84
2021/07/02 09:40:18;;;;;;;10.52;5.70;;;22.30;60.10;;;;;;5116276;28;20640;-84
2021/07/02 09:43:01;;;;;;;9.82;5.00;;;22.60;59.30;;;;;;5115800;28;20187;-83
2021/07/02 09:45:28;;;;;;;8.98;4.85;;;22.90;56.60;;;;;;5115311;28;20168;-84
2021/07/02 09:47:55;;;;;;;6.65;3.72;;;23.20;54.70;;;;;;5115089;28;20241;-84
2021/07/02 09:50:24;;;;;;;12.35;5.53;;;23.40;52.60;;;;;;5115443;28;20176;-84
2021/07/02 09:52:57;;;;;;;7.43;4.40;;;23.70;52.40;;;;;;5115005;28;20192;-83
2021/07/02 09:55:31;;;;;;;7.50;4.25;;;24.00;53.80;;;;;;5098115;28;20313;-83
2021/07/02 09:58:27;;;;;;;9.45;4.65;;;24.10;51.60;;;;;;5115074;28;20706;-83
2021/07/02 10:00:57;;;;;;;13.93;5.82;;;23.90;53.00;;;;;;5114197;28;20232;-83
2021/07/02 10:03:34;;;;;;;7.47;4.63;;;23.70;53.40;;;;;;5114411;28;20691;-83
2021/07/02 10:06:07;;;;;;;8.70;5.10;;;23.40;53.70;;;;;;5113982;28;20156;-83
2021/07/02 10:08:38;;;;;;;9.27;5.97;;;23.20;55.30;;;;;;5114351;28;20168;-83
2021/07/02 10:11:09;;;;;;;10.32;5.80;;;23.20;57.50;;;;;;5113796;28;20651;-83
2021/07/02 10:13:40;;;;;;;14.13;5.53;;;23.30;58.10;;;;;;5113958;28;20219;-82
2021/07/02 10:16:09;;;;;;;12.13;5.32;;;23.20;57.10;;;;;;5114249;28;20188;-83
2021/07/02 10:18:44;;;;;;;10.18;4.72;;;23.10;58.40;;;;;;5114170;28;20260;-83
2021/07/02 10:21:11;;;;;;;13.43;5.88;;;22.80;57.90;;;;;;5114466;28;20254;-83
2021/07/02 10:23:42;;;;;;;9.68;6.18;;;22.90;57.00;;;;;;5113916;28;20180;-83
2021/07/02 10:26:08;;;;;;;12.68;5.95;;;23.20;59.10;;;;;;5097010;28;20166;-83
2021/07/02 10:28:39;;;;;;;8.55;5.70;;;23.50;55.10;;;;;;5114491;28;20174;-83
2021/07/02 10:31:07;;;;;;;8.30;4.85;;;23.80;54.60;;;;;;5113400;28;20679;-83
2021/07/02 10:33:35;;;;;;;10.00;4.68;;;24.00;54.20;;;;;;5113195;28;20586;-83
2021/07/02 10:36:04;;;;;;;13.95;5.28;;;23.60;55.00;;;;;;5113447;28;20565;-83
2021/07/02 10:38:36;;;;;;;11.48;6.50;;;23.40;55.30;;;;;;5113382;28;20187;-83
2021/07/02 10:41:12;;;;;;;8.85;4.97;;;23.00;57.20;;;;;;5116802;28;20171;-83
2021/07/02 10:44:02;;;;;;;9.50;5.95;;;23.10;58.10;;;;;;5099108;28;20191;-83
2021/07/02 10:46:28;;;;;;;7.80;5.20;;;23.40;56.30;;;;;;5096786;28;20632;-83
2021/07/02 10:49:03;;;;;;;8.63;5.35;;;23.60;52.90;;;;;;5114069;28;20199;-83
2021/07/02 10:51:34;;;;;;;9.05;5.05;;;24.00;53.00;;;;;;5115416;28;20199;-83
2021/07/02 10:54:09;;;;;;;12.98;5.97;;;24.40;52.50;;;;;;5100244;28;20252;-84
2021/07/02 10:56:37;;;;;;;31.08;6.97;;;24.80;52.80;;;;;;5098119;28;20178;-84
2021/07/02 10:59:04;;;;;;;9.60;4.90;;;25.00;54.20;;;;;;5118866;28;20600;-83
2021/07/02 11:01:31;;;;;;;8.18;4.45;;;25.10;49.80;;;;;;5119333;28;20168;-83
2021/07/02 11:04:39;;;;;;;8.40;4.95;;;25.00;51.20;;;;;;5118804;28;20195;-83
2021/07/02 11:07:08;;;;;;;7.57;4.53;;;24.90;49.20;;;;;;5085193;28;20180;-83
2021/07/02 11:09:49;;;;;;;6.35;3.88;;;24.70;51.90;;;;;;5095941;28;20774;-83
2021/07/02 11:12:31;;;;;;;11.50;5.20;;;24.40;49.80;;;;;;5112768;28;20221;-83
2021/07/02 11:15:08;;;;;;;11.25;6.10;;;24.60;51.30;;;;;;5112517;28;20251;-83
2021/07/02 11:17:42;;;;;;;6.30;3.83;;;24.80;49.10;;;;;;5111768;28;20254;-83
2021/07/02 11:20:23;;;;;;;9.23;4.75;;;24.90;50.40;;;;;;5112158;28;20171;-83
2021/07/02 11:22:53;;;;;;;8.93;4.95;;;24.90;50.30;;;;;;5112179;28;20230;-83
2021/07/02 11:25:43;;;;;;;6.95;4.10;;;25.10;50.70;;;;;;5113092;28;20175;-83
2021/07/02 11:28:13;;;;;;;9.57;4.90;;;25.10;48.40;;;;;;5113483;28;20615;-82
2021/07/02 11:30:41;;;;;;;11.02;5.30;;;25.10;48.60;;;;;;5113198;28;20247;-83
2021/07/02 11:33:11;;;;;;;10.18;5.43;;;25.00;49.90;;;;;;5114406;28;20214;-83
2021/07/02 11:36:02;;;;;;;10.27;4.35;;;25.10;49.20;;;;;;5097113;28;20767;-83
2021/07/02 11:38:28;;;;;;;11.57;5.25;;;25.20;49.40;;;;;;5080736;28;20183;-83
2021/07/02 11:41:00;;;;;;;7.95;4.60;;;25.50;48.40;;;;;;5113987;28;20171;-82
2021/07/02 11:43:40;;;;;;;9.00;4.85;;;25.80;47.30;;;;;;5113942;28;20211;-83
2021/07/02 11:46:17;;;;;;;10.23;5.32;;;26.20;47.80;;;;;;5096688;28;20163;-84
2021/07/02 11:48:49;;;;;;;8.32;5.28;;;26.20;46.90;;;;;;5114294;28;20171;-83
2021/07/02 11:51:27;;;;;;;9.45;5.05;;;25.90;47.50;;;;;;5113779;28;20186;-83
2021/07/02 11:53:57;;;;;;;11.15;5.60;;;25.50;47.50;;;;;;5113242;28;20277;-83
2021/07/02 11:56:31;;;;;;;8.00;5.35;;;25.20;49.20;;;;;;5113997;28;20631;-83
2021/07/02 11:59:06;;;;;;;10.40;5.47;;;25.40;50.40;;;;;;5113618;28;20171;-84
2021/07/02 12:01:39;;;;;;;7.40;5.03;;;25.50;48.10;;;;;;5112554;28;20186;-84
2021/07/02 12:04:13;;;;;;;8.50;5.18;;;25.50;47.80;;;;;;5095764;28;20265;-84
2021/07/02 12:06:44;;;;;;;9.77;5.70;;;25.50;49.10;;;;;;5112059;28;20574;-83
2021/07/02 12:09:13;;;;;;;7.65;4.60;;;25.70;49.60;;;;;;5112341;28;20175;-84
2021/07/02 12:12:06;;;;;;;9.80;5.15;;;25.90;47.30;;;;;;5112530;28;20225;-84
2021/07/02 12:14:35;;;;;;;10.30;5.72;;;26.00;48.20;;;;;;5090398;28;20214;-84
2021/07/02 12:17:04;;;;;;;10.57;6.20;;;26.10;46.60;;;;;;5112041;28;20191;-84
2021/07/02 12:19:33;;;;;;;9.32;5.88;;;26.10;48.10;;;;;;5111782;28;20174;-84
2021/07/02 12:22:00;;;;;;;10.57;5.30;;;25.90;47.90;;;;;;5112275;28;20176;-84
2021/07/02 12:24:28;;;;;;;7.05;4.93;;;25.90;49.60;;;;;;5111450;28;20187;-83
2021/07/02 12:27:00;;;;;;;7.85;5.30;;;25.70;46.60;;;;;;5114107;28;20172;-83
2021/07/02 12:29:27;;;;;;;8.98;4.80;;;25.70;47.50;;;;;;5113576;28;20176;-84
2021/07/02 12:32:00;;;;;;;11.77;5.18;;;25.90;47.50;;;;;;5111498;28;20180;-84
2021/07/02 12:34:48;;;;;;;10.07;5.25;;;26.10;46.60;;;;;;5112493;28;20207;-84
2021/07/02 12:37:17;;;;;;;5.53;4.20;;;26.00;47.10;;;;;;5112175;28;20172;-84
2021/07/02 12:39:55;;;;;;;6.53;4.70;;;26.20;47.40;;;;;;5096347;28;20586;-84
2021/07/02 12:42:31;;;;;;;8.38;5.43;;;26.30;47.40;;;;;;5111703;28;20228;-84
2021/07/02 12:44:59;;;;;;;11.07;5.35;;;26.40;47.10;;;;;;5112137;28;20220;-84
2021/07/02 12:47:28;;;;;;;8.23;5.03;;;26.50;45.80;;;;;;5111655;28;20565;-84
2021/07/02 12:50:00;;;;;;;8.30;5.05;;;26.60;46.90;;;;;;5111351;28;20229;-84
2021/07/02 12:55:12;;;;;;;16.10;4.60;;;27.00;46.20;;;;;;5096072;28;20540;-84
2021/07/02 12:57:42;;;;;;;12.40;4.82;;;27.10;44.90;;;;;;5094758;28;20166;-84
2021/07/02 13:00:14;;;;;;;7.63;4.50;;;26.70;47.00;;;;;;5111325;28;20635;-84